sensor_id;sensor_type;location;lat;lon;timestamp;pressure;altitude;pressure_sealevel;temperature;humidity
65897;BME280;52677;50.898;10.854;2022-12-08T00:01:26;97872.09;;;0.93;100.00
65897;BME280;52677;50.898;10.854;2022-12-08T00:03:27;97880.25;;;0.93;100.00
65897;BME280;52677;50.898;10.854;2022-12-08T00:05:27;97878.00;;;0.95;100.00
65897;BME280;52677;50.898;10.854;2022-12-08T00:07:46;97869.50;;;0.96;100.00
65897;BME280;52677;50.898;10.854;2022-12-08T00:10:05;97873.47;;;0.99;100.00
65897;BME280;52677;50.898;10.854;2022-12-08T00:12:11;97879.25;;;0.97;100.00
65897;BME280;52677;50.898;10.854;2022-12-08T00:14:12;97866.94;;;1.00;100.00
65897;BME280;52677;50.898;10.854;2022-12-08T00:16:12;97872.03;;;1.01;100.00
65897;BME280;52677;50.898;10.854;2022-12-08T00:18:12;97863.88;;;1.01;100.00
65897;BME280;52677;50.898;10.854;2022-12-08T00:20:13;97863.88;;;1.01;100.00
65897;BME280;52677;50.898;10.854;2022-12-08T00:22:13;97853.16;;;0.96;100.00
65897;BME280;52677;50.898;10.854;2022-12-08T00:24:15;97865.25;;;1.07;100.00
65897;BME280;52677;50.898;10.854;2022-12-08T00:26:15;97861.28;;;1.05;100.00
65897;BME280;52677;50.898;10.854;2022-12-08T00:28:16;97859.84;;;0.99;100.00
65897;BME280;52677;50.898;10.854;2022-12-08T00:30:16;97853.03;;;0.93;100.00
65897;BME280;52677;50.898;10.854;2022-12-08T00:32:17;97857.97;;;0.91;100.00
65897;BME280;52677;50.898;10.854;2022-12-08T00:34:17;97856.09;;;0.91;100.00
65897;BME280;52677;50.898;10.854;2022-12-08T00:36:18;97843.91;;;0.89;100.00
65897;BME280;52677;50.898;10.854;2022-12-08T00:38:18;97838.34;;;0.85;100.00
65897;BME280;52677;50.898;10.854;2022-12-08T00:40:18;97843.91;;;0.89;100.00
65897;BME280;52677;50.898;10.854;2022-12-08T00:42:19;97841.69;;;0.82;100.00
65897;BME280;52677;50.898;10.854;2022-12-08T00:44:19;97844.41;;;0.82;100.00
65897;BME280;52677;50.898;10.854;2022-12-08T00:46:19;97842.38;;;0.79;100.00
65897;BME280;52677;50.898;10.854;2022-12-08T00:48:19;97837.72;;;0.79;100.00
65897;BME280;52677;50.898;10.854;2022-12-08T00:50:20;97835.78;;;0.80;100.00
65897;BME280;52677;50.898;10.854;2022-12-08T00:52:20;97839.31;;;0.80;100.00
65897;BME280;52677;50.898;10.854;2022-12-08T00:54:21;97838.06;;;0.78;100.00
65897;BME280;52677;50.898;10.854;2022-12-08T00:56:24;97840.09;;;0.81;100.00
65897;BME280;52677;50.898;10.854;2022-12-08T00:58:24;97842.81;;;0.81;100.00
65897;BME280;52677;50.898;10.854;2022-12-08T01:00:25;97840.09;;;0.81;100.00
65897;BME280;52677;50.898;10.854;2022-12-08T01:02:25;97832.28;;;0.79;100.00
65897;BME280;52677;50.898;10.854;2022-12-08T01:04:25;97828.41;;;0.80;100.00
65897;BME280;52677;50.898;10.854;2022-12-08T01:06:26;97843.16;;;0.79;100.00
65897;BME280;52677;50.898;10.854;2022-12-08T01:08:26;97837.03;;;0.82;100.00
65897;BME280;52677;50.898;10.854;2022-12-08T01:10:26;97822.97;;;0.80;100.00
65897;BME280;52677;50.898;10.854;2022-12-08T01:12:30;97830.34;;;0.80;100.00
65897;BME280;52677;50.898;10.854;2022-12-08T01:14:30;97829.88;;;0.78;100.00
65897;BME280;52677;50.898;10.854;2022-12-08T01:16:33;97831.94;;;0.81;100.00
65897;BME280;52677;50.898;10.854;2022-12-08T01:18:34;97833.06;;;0.80;100.00
65897;BME280;52677;50.898;10.854;2022-12-08T01:20:35;97834.31;;;0.82;100.00
65897;BME280;52677;50.898;10.854;2022-12-08T01:22:35;97838.34;;;0.85;100.00
65897;BME280;52677;50.898;10.854;2022-12-08T01:24:37;97837.88;;;0.83;100.00
65897;BME280;52677;50.898;10.854;2022-12-08T01:26:37;97841.38;;;0.83;100.00
65897;BME280;52677;50.898;10.854;2022-12-08T01:28:38;97846.03;;;0.83;100.00
65897;BME280;52677;50.898;10.854;2022-12-08T01:30:39;97843.78;;;0.85;100.00
65897;BME280;52677;50.898;10.854;2022-12-08T01:32:40;97848.09;;;0.86;100.00
65897;BME280;52677;50.898;10.854;2022-12-08T01:34:40;97849.03;;;0.90;100.00
65897;BME280;52677;50.898;10.854;2022-12-08T01:36:40;97843.91;;;0.89;100.00
65897;BME280;52677;50.898;10.854;2022-12-08T01:38:41;97848.22;;;0.90;100.00
65897;BME280;52677;50.898;10.854;2022-12-08T01:40:41;97840.03;;;0.90;100.00
65897;BME280;52677;50.898;10.854;2022-12-08T01:42:42;97836.41;;;0.86;100.00
65897;BME280;52677;50.898;10.854;2022-12-08T01:46:44;97839.06;;;0.94;100.00
65897;BME280;52677;50.898;10.854;2022-12-08T01:48:46;97837.16;;;0.95;100.00
65897;BME280;52677;50.898;10.854;2022-12-08T01:50:48;97833.28;;;0.96;100.00
65897;BME280;52677;50.898;10.854;2022-12-08T01:52:54;97822.41;;;0.96;100.00
65897;BME280;52677;50.898;10.854;2022-12-08T01:55:43;97831.81;;;0.98;100.00
65897;BME280;52677;50.898;10.854;2022-12-08T01:57:29;97830.22;;;0.97;100.00
65897;BME280;52677;50.898;10.854;2022-12-08T01:59:32;97821.25;;;0.97;100.00
65897;BME280;52677;50.898;10.854;2022-12-08T02:01:33;97816.16;;;0.95;100.00
65897;BME280;52677;50.898;10.854;2022-12-08T02:03:40;97825.91;;;0.96;100.00
65897;BME280;52677;50.898;10.854;2022-12-08T02:05:41;97828.63;;;0.96;100.00
65897;BME280;52677;50.898;10.854;2022-12-08T02:07:43;97826.38;;;0.98;100.00
65897;BME280;52677;50.898;10.854;2022-12-08T02:09:44;97828.91;;;1.03;100.00
65897;BME280;52677;50.898;10.854;2022-12-08T02:11:45;97826.19;;;1.03;100.00
65897;BME280;52677;50.898;10.854;2022-12-08T02:13:46;97817.69;;;1.05;100.00
65897;BME280;52677;50.898;10.854;2022-12-08T02:25:17;97821.41;;;1.00;100.00
65897;BME280;52677;50.898;10.854;2022-12-08T02:27:30;97814.69;;;0.98;100.00
65897;BME280;52677;50.898;10.854;2022-12-08T02:36:31;97812.91;;;1.02;100.00
65897;BME280;52677;50.898;10.854;2022-12-08T02:40:49;97813.88;;;0.97;100.00
65897;BME280;52677;50.898;10.854;2022-12-08T02:42:59;97816.50;;;0.94;100.00
65897;BME280;52677;50.898;10.854;2022-12-08T02:45:10;97815.53;;;0.90;100.00
65897;BME280;52677;50.898;10.854;2022-12-08T02:47:16;97804.53;;;0.86;100.00
65897;BME280;52677;50.898;10.854;2022-12-08T02:49:17;97807.25;;;0.86;100.00
65897;BME280;52677;50.898;10.854;2022-12-08T02:51:18;97806.28;;;0.82;100.00
65897;BME280;52677;50.898;10.854;2022-12-08T02:53:18;97803.56;;;0.82;100.00
65897;BME280;52677;50.898;10.854;2022-12-08T03:09:33;97780.13;;;0.69;100.00
65897;BME280;52677;50.898;10.854;2022-12-08T03:11:44;97782.84;;;0.69;100.00
65897;BME280;52677;50.898;10.854;2022-12-08T03:13:52;97782.69;;;0.65;100.00
65897;BME280;52677;50.898;10.854;2022-12-08T03:15:54;97783.97;;;0.68;100.00
65897;BME280;52677;50.898;10.854;2022-12-08T03:17:57;97786.53;;;0.64;100.00
65897;BME280;52677;50.898;10.854;2022-12-08T03:20:02;97786.53;;;0.64;100.00
65897;BME280;52677;50.898;10.854;2022-12-08T03:22:05;97773.28;;;0.63;100.00
65897;BME280;52677;50.898;10.854;2022-12-08T03:24:07;97777.25;;;0.65;100.00
65897;BME280;52677;50.898;10.854;2022-12-08T03:26:18;97774.41;;;0.62;100.00
65897;BME280;52677;50.898;10.854;2022-12-08T03:28:22;97776.19;;;0.57;100.00
65897;BME280;52677;50.898;10.854;2022-12-08T03:30:23;97775.72;;;0.55;100.00
65897;BME280;52677;50.898;10.854;2022-12-08T03:32:34;97771.88;;;0.56;100.00
65897;BME280;52677;50.898;10.854;2022-12-08T03:34:37;97768.34;;;0.56;100.00
65897;BME280;52677;50.898;10.854;2022-12-08T03:36:39;97764.66;;;0.61;100.00
65897;BME280;52677;50.898;10.854;2022-12-08T03:38:42;97761.91;;;0.61;100.00
65897;BME280;52677;50.898;10.854;2022-12-08T03:40:43;97760.66;;;0.58;100.00
65897;BME280;52677;50.898;10.854;2022-12-08T03:43:04;97757.94;;;0.58;100.00
65897;BME280;52677;50.898;10.854;2022-12-08T03:45:05;97761.91;;;0.61;100.00
65897;BME280;52677;50.898;10.854;2022-12-08T03:47:05;97771.34;;;0.63;100.00
65897;BME280;52677;50.898;10.854;2022-12-08T03:49:06;97767.81;;;0.63;100.00
65897;BME280;52677;50.898;10.854;2022-12-08T03:51:06;97758.88;;;0.62;100.00
65897;BME280;52677;50.898;10.854;2022-12-08T03:53:06;97754.22;;;0.63;100.00
65897;BME280;52677;50.898;10.854;2022-12-08T03:55:07;97748.91;;;0.66;100.00
65897;BME280;52677;50.898;10.854;2022-12-08T03:57:08;97749.38;;;0.68;100.00
65897;BME280;52677;50.898;10.854;2022-12-08T03:59:09;97750.97;;;0.69;100.00
65897;BME280;52677;50.898;10.854;2022-12-08T04:01:10;97749.72;;;0.67;100.00
65897;BME280;52677;50.898;10.854;2022-12-08T04:03:11;97762.31;;;0.71;100.00
65897;BME280;52677;50.898;10.854;2022-12-08T04:05:11;97752.91;;;0.69;100.00
65897;BME280;52677;50.898;10.854;2022-12-08T04:07:11;97754.03;;;0.68;100.00
65897;BME280;52677;50.898;10.854;2022-12-08T04:09:12;97754.34;;;0.66;100.00
65897;BME280;52677;50.898;10.854;2022-12-08T04:11:12;97754.34;;;0.66;100.00
65897;BME280;52677;50.898;10.854;2022-12-08T04:13:13;97745.72;;;0.64;100.00
65897;BME280;52677;50.898;10.854;2022-12-08T04:15:13;97746.03;;;0.63;100.00
65897;BME280;52677;50.898;10.854;2022-12-08T04:17:13;97740.94;;;0.61;100.00
65897;BME280;52677;50.898;10.854;2022-12-08T04:19:13;97743.31;;;0.63;100.00
65897;BME280;52677;50.898;10.854;2022-12-08T04:21:14;97740.59;;;0.63;100.00
65897;BME280;52677;50.898;10.854;2022-12-08T04:23:15;97741.41;;;0.63;100.00
65897;BME280;52677;50.898;10.854;2022-12-08T04:25:15;97732.31;;;0.59;100.00
65897;BME280;52677;50.898;10.854;2022-12-08T04:27:15;97729.59;;;0.59;100.00
65897;BME280;52677;50.898;10.854;2022-12-08T04:29:16;97735.50;;;0.61;100.00
65897;BME280;52677;50.898;10.854;2022-12-08T04:31:16;97735.84;;;0.60;100.00
65897;BME280;52677;50.898;10.854;2022-12-08T04:33:17;97726.88;;;0.59;100.00
65897;BME280;52677;50.898;10.854;2022-12-08T04:35:17;97730.56;;;0.54;100.00
65897;BME280;52677;50.898;10.854;2022-12-08T04:37:17;97734.75;;;0.52;100.00
65897;BME280;52677;50.898;10.854;2022-12-08T04:39:17;97729.84;;;0.45;100.00
65897;BME280;52677;50.898;10.854;2022-12-08T04:41:18;97732.84;;;0.52;100.00
65897;BME280;52677;50.898;10.854;2022-12-08T04:43:18;97732.50;;;0.54;100.00
65897;BME280;52677;50.898;10.854;2022-12-08T04:45:19;97725.78;;;0.51;100.00
65897;BME280;52677;50.898;10.854;2022-12-08T04:47:19;97733.97;;;0.51;100.00
65897;BME280;52677;50.898;10.854;2022-12-08T04:49:21;97724.66;;;0.52;100.00
65897;BME280;52677;50.898;10.854;2022-12-08T04:51:21;97728.84;;;0.50;100.00
65897;BME280;52677;50.898;10.854;2022-12-08T04:53:22;97717.47;;;0.48;100.00
65897;BME280;52677;50.898;10.854;2022-12-08T04:55:22;97715.88;;;0.47;100.00
65897;BME280;52677;50.898;10.854;2022-12-08T04:57:22;97724.06;;;0.47;100.00
65897;BME280;52677;50.898;10.854;2022-12-08T04:59:23;97712.72;;;0.45;100.00
65897;BME280;52677;50.898;10.854;2022-12-08T05:01:23;97710.66;;;0.42;100.00
65897;BME280;52677;50.898;10.854;2022-12-08T05:03:23;97714.47;;;0.41;100.00
65897;BME280;52677;50.898;10.854;2022-12-08T05:05:24;97706.81;;;0.43;100.00
65897;BME280;52677;50.898;10.854;2022-12-08T05:07:24;97712.25;;;0.43;100.00
65897;BME280;52677;50.898;10.854;2022-12-08T05:09:24;97717.69;;;0.43;100.00
65897;BME280;52677;50.898;10.854;2022-12-08T05:11:25;97707.59;;;0.43;100.00
65897;BME280;52677;50.898;10.854;2022-12-08T05:13:25;97710.91;;;0.49;100.00
65897;BME280;52677;50.898;10.854;2022-12-08T05:15:26;97713.63;;;0.49;100.00
65897;BME280;52677;50.898;10.854;2022-12-08T05:17:26;97706.25;;;0.49;100.00
65897;BME280;52677;50.898;10.854;2022-12-08T05:19:26;97706.94;;;0.46;100.00
65897;BME280;52677;50.898;10.854;2022-12-08T05:21:27;97707.38;;;0.48;100.00
65897;BME280;52677;50.898;10.854;2022-12-08T05:23:27;97705.28;;;0.54;100.00
65897;BME280;52677;50.898;10.854;2022-12-08T05:25:28;97704.94;;;0.55;100.00
65897;BME280;52677;50.898;10.854;2022-12-08T05:27:28;97702.38;;;0.59;100.00
65897;BME280;52677;50.898;10.854;2022-12-08T05:29:28;97698.78;;;0.67;100.00
65897;BME280;52677;50.898;10.854;2022-12-08T05:31:29;97697.66;;;0.68;100.00
65897;BME280;52677;50.898;10.854;2022-12-08T05:33:29;97692.53;;;0.67;100.00
65897;BME280;52677;50.898;10.854;2022-12-08T05:35:30;97692.31;;;0.72;100.00
65897;BME280;52677;50.898;10.854;2022-12-08T05:37:30;97689.75;;;0.75;100.00
65897;BME280;52677;50.898;10.854;2022-12-08T05:39:30;97690.53;;;0.76;100.00
65897;BME280;52677;50.898;10.854;2022-12-08T05:41:31;97691.34;;;0.76;100.00
65897;BME280;52677;50.898;10.854;2022-12-08T05:43:31;97692.13;;;0.77;100.00
65897;BME280;52677;50.898;10.854;2022-12-08T05:45:32;97692.59;;;0.79;100.00
65897;BME280;52677;50.898;10.854;2022-12-08T05:47:32;97696.72;;;0.85;100.00
65897;BME280;52677;50.898;10.854;2022-12-08T05:49:33;97691.59;;;0.83;100.00
65897;BME280;52677;50.898;10.854;2022-12-08T05:51:33;97694.34;;;0.83;100.00
65897;BME280;52677;50.898;10.854;2022-12-08T05:53:33;97681.03;;;0.82;100.00
65897;BME280;52677;50.898;10.854;2022-12-08T05:55:33;97687.25;;;0.82;100.00
65897;BME280;52677;50.898;10.854;2022-12-08T05:57:34;97688.88;;;0.83;100.00
65897;BME280;52677;50.898;10.854;2022-12-08T05:59:35;97690.00;;;0.82;100.00
65897;BME280;52677;50.898;10.854;2022-12-08T06:01:36;97694.34;;;0.83;100.00
65897;BME280;52677;50.898;10.854;2022-12-08T06:03:36;97690.94;;;0.87;100.00
65897;BME280;52677;50.898;10.854;2022-12-08T06:05:37;97693.66;;;0.87;100.00
65897;BME280;52677;50.898;10.854;2022-12-08T06:07:37;97682.09;;;0.90;100.00
65897;BME280;52677;50.898;10.854;2022-12-08T06:09:38;97679.34;;;0.90;100.00
65897;BME280;52677;50.898;10.854;2022-12-08T06:11:38;97684.16;;;0.93;100.00
65897;BME280;52677;50.898;10.854;2022-12-08T06:13:38;97683.03;;;0.94;100.00
65897;BME280;52677;50.898;10.854;2022-12-08T06:15:39;97680.69;;;1.04;100.00
65897;BME280;52677;50.898;10.854;2022-12-08T06:17:40;97688.84;;;1.04;100.00
65897;BME280;52677;50.898;10.854;2022-12-08T06:19:41;97690.09;;;1.07;100.00
65897;BME280;52677;50.898;10.854;2022-12-08T06:21:41;97685.13;;;1.09;100.00
65897;BME280;52677;50.898;10.854;2022-12-08T06:23:42;97683.53;;;1.08;100.00
65897;BME280;52677;50.898;10.854;2022-12-08T06:25:42;97679.69;;;1.09;100.00
65897;BME280;52677;50.898;10.854;2022-12-08T06:27:43;97685.94;;;1.09;100.00
65897;BME280;52677;50.898;10.854;2022-12-08T06:29:43;97678.09;;;1.08;100.00
65897;BME280;52677;50.898;10.854;2022-12-08T06:31:43;97675.22;;;1.04;100.00
65897;BME280;52677;50.898;10.854;2022-12-08T06:33:44;97672.84;;;1.03;100.00
65897;BME280;52677;50.898;10.854;2022-12-08T06:35:45;97677.69;;;0.97;100.00
65897;BME280;52677;50.898;10.854;2022-12-08T06:37:45;97672.13;;;0.94;100.00
65897;BME280;52677;50.898;10.854;2022-12-08T06:39:45;97684.94;;;0.93;100.00
65897;BME280;52677;50.898;10.854;2022-12-08T06:41:46;97674.06;;;0.93;100.00
65897;BME280;52677;50.898;10.854;2022-12-08T06:44:04;97681.09;;;0.94;100.00
65897;BME280;52677;50.898;10.854;2022-12-08T06:46:06;97676.09;;;0.96;100.00
65897;BME280;52677;50.898;10.854;2022-12-08T06:48:07;97675.31;;;0.96;100.00
65897;BME280;52677;50.898;10.854;2022-12-08T06:50:09;97677.22;;;0.95;100.00
65897;BME280;52677;50.898;10.854;2022-12-08T06:52:10;97682.78;;;0.99;100.00
65897;BME280;52677;50.898;10.854;2022-12-08T06:54:10;97668.88;;;1.00;100.00
65897;BME280;52677;50.898;10.854;2022-12-08T06:56:11;97675.91;;;1.01;100.00
65897;BME280;52677;50.898;10.854;2022-12-08T06:58:13;97675.09;;;1.01;100.00
65897;BME280;52677;50.898;10.854;2022-12-08T07:00:14;97672.38;;;1.01;100.00
65897;BME280;52677;50.898;10.854;2022-12-08T07:02:14;97677.34;;;0.99;100.00
65897;BME280;52677;50.898;10.854;2022-12-08T07:04:15;97691.72;;;1.08;100.00
65897;BME280;52677;50.898;10.854;2022-12-08T07:06:18;97685.00;;;1.05;100.00
65897;BME280;52677;50.898;10.854;2022-12-08T07:08:20;97683.41;;;1.04;100.00
65897;BME280;52677;50.898;10.854;2022-12-08T07:10:20;97683.06;;;1.06;100.00
65897;BME280;52677;50.898;10.854;2022-12-08T07:12:20;97680.22;;;1.02;100.00
65897;BME280;52677;50.898;10.854;2022-12-08T07:14:21;97676.69;;;1.02;100.00
65897;BME280;52677;50.898;10.854;2022-12-08T07:16:23;97686.47;;;1.03;100.00
65897;BME280;52677;50.898;10.854;2022-12-08T07:18:24;97675.22;;;1.04;100.00
65897;BME280;52677;50.898;10.854;2022-12-08T07:20:24;97680.22;;;1.02;100.00
65897;BME280;52677;50.898;10.854;2022-12-08T07:22:24;97672.25;;;0.97;100.00
65897;BME280;52677;50.898;10.854;2022-12-08T07:24:25;97672.59;;;0.96;100.00
65897;BME280;52677;50.898;10.854;2022-12-08T07:26:25;97675.75;;;0.98;100.00
65897;BME280;52677;50.898;10.854;2022-12-08T07:28:26;97679.75;;;1.00;100.00
65897;BME280;52677;50.898;10.854;2022-12-08T07:30:26;97677.16;;;1.04;100.00
65897;BME280;52677;50.898;10.854;2022-12-08T07:32:26;97681.47;;;1.05;100.00
65897;BME280;52677;50.898;10.854;2022-12-08T07:34:27;97672.94;;;1.06;100.00
65897;BME280;52677;50.898;10.854;2022-12-08T07:36:27;97677.94;;;1.04;100.00
65897;BME280;52677;50.898;10.854;2022-12-08T07:38:28;97676.81;;;1.05;100.00
65897;BME280;52677;50.898;10.854;2022-12-08T07:40:28;97679.00;;;1.12;100.00
65897;BME280;52677;50.898;10.854;2022-12-08T07:42:28;97682.06;;;1.10;100.00
65897;BME280;52677;50.898;10.854;2022-12-08T07:44:29;97686.72;;;1.10;100.00
65897;BME280;52677;50.898;10.854;2022-12-08T07:46:29;97678.53;;;1.10;100.00
65897;BME280;52677;50.898;10.854;2022-12-08T07:48:29;97684.78;;;1.10;100.00
65897;BME280;52677;50.898;10.854;2022-12-08T07:50:30;97685.69;;;1.15;100.00
65897;BME280;52677;50.898;10.854;2022-12-08T07:52:30;97685.38;;;1.16;100.00
65897;BME280;52677;50.898;10.854;2022-12-08T07:54:30;97688.13;;;1.16;100.00
65897;BME280;52677;50.898;10.854;2022-12-08T07:56:31;97679.78;;;1.12;100.00
65897;BME280;52677;50.898;10.854;2022-12-08T07:58:31;97683.31;;;1.13;100.00
65897;BME280;52677;50.898;10.854;2022-12-08T08:00:31;97682.06;;;1.10;100.00
65897;BME280;52677;50.898;10.854;2022-12-08T08:02:32;97689.22;;;1.15;100.00
65897;BME280;52677;50.898;10.854;2022-12-08T08:04:32;97680.84;;;1.20;100.00
65897;BME280;52677;50.898;10.854;2022-12-08T08:06:33;97679.72;;;1.21;100.00
65897;BME280;52677;50.898;10.854;2022-12-08T08:08:35;97674.41;;;1.25;100.00
65897;BME280;52677;50.898;10.854;2022-12-08T08:10:35;97673.72;;;1.28;100.00
65897;BME280;52677;50.898;10.854;2022-12-08T08:12:37;97682.34;;;1.30;100.00
65897;BME280;52677;50.898;10.854;2022-12-08T08:14:37;97680.56;;;1.34;100.00
65897;BME280;52677;50.898;10.854;2022-12-08T08:16:37;97681.00;;;1.36;100.00
65897;BME280;52677;50.898;10.854;2022-12-08T08:18:38;97680.56;;;1.34;100.00
65897;BME280;52677;50.898;10.854;2022-12-08T08:20:39;97672.38;;;1.34;100.00
65897;BME280;52677;50.898;10.854;2022-12-08T08:22:40;97684.06;;;1.34;100.00
65897;BME280;52677;50.898;10.854;2022-12-08T08:24:40;97682.00;;;1.31;100.00
65897;BME280;52677;50.898;10.854;2022-12-08T08:26:40;97681.22;;;1.31;100.00
65897;BME280;52677;50.898;10.854;2022-12-08T08:28:41;97675.66;;;1.27;100.00
65897;BME280;52677;50.898;10.854;2022-12-08T08:30:45;97679.38;;;1.23;100.00
65897;BME280;52677;50.898;10.854;2022-12-08T08:32:46;97671.97;;;1.23;100.00
65897;BME280;52677;50.898;10.854;2022-12-08T08:34:46;97685.31;;;1.25;100.00
65897;BME280;52677;50.898;10.854;2022-12-08T08:36:47;97683.81;;;1.27;100.00
65897;BME280;52677;50.898;10.854;2022-12-08T08:38:47;97672.47;;;1.25;100.00
65897;BME280;52677;50.898;10.854;2022-12-08T08:40:47;97680.75;;;1.29;100.00
65897;BME280;52677;50.898;10.854;2022-12-08T08:42:48;97679.16;;;1.28;100.00
65897;BME280;52677;50.898;10.854;2022-12-08T08:44:48;97681.22;;;1.31;100.00
65897;BME280;52677;50.898;10.854;2022-12-08T08:46:48;97674.41;;;1.37;100.00
65897;BME280;52677;50.898;10.854;2022-12-08T08:48:49;97681.00;;;1.36;100.00
65897;BME280;52677;50.898;10.854;2022-12-08T08:50:49;97674.75;;;1.35;100.00
65897;BME280;52677;50.898;10.854;2022-12-08T08:52:49;97675.91;;;1.34;100.00
65897;BME280;52677;50.898;10.854;2022-12-08T08:54:50;97681.00;;;1.36;100.00
65897;BME280;52677;50.898;10.854;2022-12-08T08:56:50;97678.28;;;1.36;100.00
65897;BME280;52677;50.898;10.854;2022-12-08T08:58:52;97671.69;;;1.37;100.00
65897;BME280;52677;50.898;10.854;2022-12-08T09:00:52;97677.59;;;1.39;100.00
65897;BME280;52677;50.898;10.854;2022-12-08T09:02:53;97682.69;;;1.40;100.00
65897;BME280;52677;50.898;10.854;2022-12-08T09:04:53;97672.84;;;1.48;100.00
65897;BME280;52677;50.898;10.854;2022-12-08T09:06:53;97684.22;;;1.50;100.00
65897;BME280;52677;50.898;10.854;2022-12-08T09:08:53;97682.63;;;1.49;100.00
65897;BME280;52677;50.898;10.854;2022-12-08T09:10:54;97677.97;;;1.50;100.00
65897;BME280;52677;50.898;10.854;2022-12-08T09:12:54;97682.75;;;1.53;100.00
65897;BME280;52677;50.898;10.854;2022-12-08T09:14:54;97681.94;;;1.52;100.00
65897;BME280;52677;50.898;10.854;2022-12-08T09:16:55;97675.72;;;1.52;100.00
65897;BME280;52677;50.898;10.854;2022-12-08T09:18:55;97672.44;;;1.58;100.00
65897;BME280;52677;50.898;10.854;2022-12-08T09:20:56;97679.13;;;1.61;100.00
65897;BME280;52677;50.898;10.854;2022-12-08T09:22:56;97676.41;;;1.61;100.00
65897;BME280;52677;50.898;10.854;2022-12-08T09:24:57;97672.09;;;1.60;100.00
65897;BME280;52677;50.898;10.854;2022-12-08T09:26:57;97676.84;;;1.63;100.00
65897;BME280;52677;50.898;10.854;2022-12-08T09:28:57;97670.59;;;1.62;100.00
65897;BME280;52677;50.898;10.854;2022-12-08T09:30:58;97673.91;;;1.68;100.00
65897;BME280;52677;50.898;10.854;2022-12-08T09:32:58;97670.41;;;1.67;100.00
65897;BME280;52677;50.898;10.854;2022-12-08T09:34:58;97680.59;;;1.71;100.00
65897;BME280;52677;50.898;10.854;2022-12-08T09:36:59;97680.25;;;1.72;100.00
65897;BME280;52677;50.898;10.854;2022-12-08T09:38:59;97680.59;;;1.71;100.00
65897;BME280;52677;50.898;10.854;2022-12-08T09:41:02;97680.75;;;1.74;100.00
65897;BME280;52677;50.898;10.854;2022-12-08T09:43:23;97665.19;;;1.75;100.00
65897;BME280;52677;50.898;10.854;2022-12-08T09:45:28;97662.56;;;1.78;100.00
65897;BME280;52677;50.898;10.854;2022-12-08T09:47:34;97652.09;;;1.80;100.00
65897;BME280;52677;50.898;10.854;2022-12-08T09:49:41;97657.34;;;1.85;100.00
65897;BME280;52677;50.898;10.854;2022-12-08T09:51:43;97652.09;;;1.92;100.00
65897;BME280;52677;50.898;10.854;2022-12-08T09:53:45;97655.28;;;1.94;100.00
65897;BME280;52677;50.898;10.854;2022-12-08T09:55:58;97646.75;;;1.96;100.00
65897;BME280;52677;50.898;10.854;2022-12-08T09:58:01;97633.56;;;1.98;100.00
65897;BME280;52677;50.898;10.854;2022-12-08T10:00:05;97644.47;;;1.98;100.00
65897;BME280;52677;50.898;10.854;2022-12-08T10:02:37;97642.22;;;2.00;100.00
65897;BME280;52677;50.898;10.854;2022-12-08T10:04:38;97639.94;;;2.02;100.00
65897;BME280;52677;50.898;10.854;2022-12-08T10:08:58;97635.84;;;2.08;100.00
65897;BME280;52677;50.898;10.854;2022-12-08T10:11:08;97634.34;;;2.11;100.00
65897;BME280;52677;50.898;10.854;2022-12-08T10:17:44;97617.06;;;2.19;100.00
65897;BME280;52677;50.898;10.854;2022-12-08T10:19:48;97621.03;;;2.21;100.00
65897;BME280;52677;50.898;10.854;2022-12-08T10:21:51;97615.56;;;2.21;100.00
65897;BME280;52677;50.898;10.854;2022-12-08T10:23:56;97613.97;;;2.20;100.00
65897;BME280;52677;50.898;10.854;2022-12-08T10:26:14;97623.53;;;2.27;100.00
65897;BME280;52677;50.898;10.854;2022-12-08T10:28:14;97616.50;;;2.25;100.00
65897;BME280;52677;50.898;10.854;2022-12-08T10:30:17;97613.75;;;2.25;100.00
65897;BME280;52677;50.898;10.854;2022-12-08T10:32:18;97601.00;;;2.30;100.00
65897;BME280;52677;50.898;10.854;2022-12-08T10:34:21;97612.81;;;2.34;100.00
65897;BME280;52677;50.898;10.854;2022-12-08T10:36:44;97612.47;;;2.35;99.94
65897;BME280;52677;50.898;10.854;2022-12-08T10:38:45;97607.03;;;2.35;100.00
65897;BME280;52677;50.898;10.854;2022-12-08T10:40:47;97610.44;;;2.32;100.00
65897;BME280;52677;50.898;10.854;2022-12-08T10:42:51;97599.41;;;2.29;100.00
65897;BME280;52677;50.898;10.854;2022-12-08T10:46:57;97598.38;;;2.33;100.00
65897;BME280;52677;50.898;10.854;2022-12-08T10:51:03;97609.16;;;2.42;100.00
65897;BME280;52677;50.898;10.854;2022-12-08T10:55:16;97600.72;;;2.47;100.00
65897;BME280;52677;50.898;10.854;2022-12-08T10:57:21;97587.41;;;2.45;100.00
65897;BME280;52677;50.898;10.854;2022-12-08T10:59:22;97595.03;;;2.40;100.00
65897;BME280;52677;50.898;10.854;2022-12-08T11:01:32;97598.78;;;2.47;100.00
65897;BME280;52677;50.898;10.854;2022-12-08T11:03:38;97603.44;;;2.47;100.00
65897;BME280;52677;50.898;10.854;2022-12-08T11:05:42;97588.47;;;2.41;100.00
65897;BME280;52677;50.898;10.854;2022-12-08T11:07:51;97588.91;;;2.43;100.00
65897;BME280;52677;50.898;10.854;2022-12-08T11:09:55;97584.34;;;2.47;100.00
65897;BME280;52677;50.898;10.854;2022-12-08T11:11:59;97591.84;;;2.50;100.00
65897;BME280;52677;50.898;10.854;2022-12-08T11:14:00;97586.84;;;2.52;100.00
65897;BME280;52677;50.898;10.854;2022-12-08T11:16:05;97575.56;;;2.53;100.00
65897;BME280;52677;50.898;10.854;2022-12-08T11:18:17;97581.56;;;2.59;100.00
65897;BME280;52677;50.898;10.854;2022-12-08T11:20:21;97585.91;;;2.60;100.00
65897;BME280;52677;50.898;10.854;2022-12-08T11:22:38;97578.13;;;2.62;100.00
65897;BME280;52677;50.898;10.854;2022-12-08T11:24:38;97576.78;;;2.56;100.00
65897;BME280;52677;50.898;10.854;2022-12-08T11:26:40;97573.63;;;2.54;100.00